Archival Weather

Republic

Farmingdale, New York (KFRG)

Report from: Wednesday, February 7, 2024 9:53 PM EST
Current time: Monday, June 24, 2024 7:14 AM EDT

Current weather – Weather history – Daily summaries
Weather forecast

Temperature-0.6°C (30.9°F)
Dew point-4.4°C (24.1°F)
Winds Calm
Visibility10 mi. (16.1 km)
Clouds Sky clear
Altimeter30.29 in.Hg (1026 mB)
Relative humidity75 %
Density altitude-2,260 ft. (-689 m)
Sea-level pressure102.6 kPa (1026 mB, 30.29 in.Hg)
Remarks Fully automated report
Automated weather observing station without precipitation discriminator
Freezing rain sensor not operating
Pressure rising, then falling
Flight conditions Visual Meteorological Conditions
Raw dataKFRG 080253Z AUTO 00000KT 10SM CLR M01/M04 A3029 RMK AO1 SLP256 T10061044 50000 FZRANO
An error has occurred. This application may no longer respond until reloaded. Reload 🗙